aviador You're here:

PATO Decoded Metar

PORTAGE GLACIER in AK, USA
Report Time2017-07-21 07:53:00
UTC Time2017-07-21 08:35:44
Flight Rules vfr VFR
Wind110° at 03 kt
W.Rank110° ranks 1
Current wind is below 110° avg. (10.7)
Visibility9999 m
Phenomena:N/A
Clouds:Overcast 042 Hf
Expected CloudBase > 1,200 ft AGL from Temp-Dew spread
Ceiling4,200 ft
Temp11°C (ISA -4)
Dew Point08°C (82% RH)
AAT9.5°C
QNH1015 hPa
Density Alt-272 ft
Elevation102 ft
Report Wrong Elevation
Raw Report
PATO 210753Z AUTO 11003KT 10SM OVC042 11/08 A2998 RMK AO2 SLP151
T01060083 TSNO=

Extra information for PATO:More info

Metar Taf Metar & Taf Last 4 Metars F.Rules Stats Wind Profile Meteogram Temp Stats Airport Information Weather charts Add Link Nearby VenuesMetar ALERT Operation Metar Decoded Social comments

AIRNAV info for PATO